Longchamps, Argentina
Current Conditions -  °F | °C
As of 4:36 AM on Saturday 01 Nov 2014 (Local Time) from SAEZ Reporting Station
Clear Clear  
Wind Chill: 55°   Ceiling: Unl
Heat Index: 55°   Visibility: 6mi
Dew Point: 45°   Wind: 18mph
Humidity: 67%   Direction: 150°SSE
Pressure: 30.18"   Gusts: 32mph
Location:  34.87°S, 58.38°W
Report Text: SAEZ 010736Z 15016G28KT 130V190 CAVOK 13/07 Q1022
Loading
Personal Weather Stations






























Interactive Weather Map
Tropical Storm Tracking
New forecast layout! Learn more

10-Day Weather Forecast

Advertisements
Track Severe Weather on mobile